createdAt,value
2019-03-19T00:00:05.558Z,1004.61
2019-03-19T00:01:05.581Z,1004.59
2019-03-19T00:02:05.611Z,1004.62
2019-03-19T00:03:05.641Z,1004.61
2019-03-19T00:04:05.666Z,1004.60
2019-03-19T00:05:05.690Z,1004.65
2019-03-19T00:06:05.720Z,1004.67
2019-03-19T00:07:05.744Z,1004.62
2019-03-19T00:08:05.781Z,1004.61
2019-03-19T00:09:05.804Z,1004.65
2019-03-19T00:10:05.825Z,1004.64
2019-03-19T00:11:05.857Z,1004.65
2019-03-19T00:12:05.882Z,1004.68
2019-03-19T00:13:05.909Z,1004.69
2019-03-19T00:14:05.936Z,1004.70
2019-03-19T00:15:05.961Z,1004.67
2019-03-19T00:16:05.988Z,1004.71
2019-03-19T00:17:06.015Z,1004.74
2019-03-19T00:18:06.043Z,1004.74
2019-03-19T00:19:06.070Z,1004.72
2019-03-19T00:20:06.100Z,1004.74
2019-03-19T00:21:06.123Z,1004.75
2019-03-19T00:22:06.151Z,1004.81
2019-03-19T00:23:06.180Z,1004.82
2019-03-19T00:24:06.205Z,1004.80
2019-03-19T00:25:06.231Z,1004.81
2019-03-19T00:26:06.259Z,1004.79
2019-03-19T00:27:06.287Z,1004.82
2019-03-19T00:28:06.316Z,1004.85
2019-03-19T00:29:06.340Z,1004.84
2019-03-19T00:30:06.368Z,1004.83
2019-03-19T00:31:06.395Z,1004.84
2019-03-19T00:32:06.421Z,1004.79
2019-03-19T00:33:06.453Z,1004.81
2019-03-19T00:34:06.486Z,1004.85
2019-03-19T00:35:06.505Z,1004.81
2019-03-19T00:36:06.532Z,1004.87
2019-03-19T00:37:06.558Z,1004.86
2019-03-19T00:38:06.584Z,1004.87
2019-03-19T00:39:06.615Z,1004.90
2019-03-19T00:40:06.640Z,1004.93
2019-03-19T00:41:06.667Z,1004.91
2019-03-19T00:42:06.693Z,1004.89
2019-03-19T00:43:06.723Z,1004.89
2019-03-19T00:44:06.757Z,1004.89
2019-03-19T00:45:06.783Z,1004.83
2019-03-19T00:46:06.803Z,1004.88
2019-03-19T00:47:06.831Z,1004.92
2019-03-19T00:48:06.857Z,1004.96
2019-03-19T00:49:07.030Z,1004.97
2019-03-19T00:50:06.913Z,1004.92
2019-03-19T00:51:06.936Z,1004.98
2019-03-19T00:52:06.966Z,1005.03
2019-03-19T00:53:06.992Z,1005.01
2019-03-19T00:54:07.019Z,1005.04
2019-03-19T00:55:07.047Z,1005.09
2019-03-19T00:56:07.074Z,1005.11
2019-03-19T00:57:07.103Z,1005.11
2019-03-19T00:58:07.126Z,1005.12
2019-03-19T00:59:07.158Z,1005.09
2019-03-19T01:00:07.182Z,1005.11
2019-03-19T01:01:07.207Z,1005.07
2019-03-19T01:02:07.236Z,1005.08
2019-03-19T01:03:07.264Z,1005.10
2019-03-19T01:04:07.290Z,1005.09
2019-03-19T01:05:07.315Z,1005.13
2019-03-19T01:06:07.347Z,1005.16
2019-03-19T01:07:07.371Z,1005.13
2019-03-19T01:08:07.404Z,1005.16
2019-03-19T01:09:07.424Z,1005.18
2019-03-19T01:10:07.450Z,1005.19
2019-03-19T01:11:07.482Z,1005.21
2019-03-19T01:12:07.508Z,1005.22
2019-03-19T01:13:07.534Z,1005.30
2019-03-19T01:14:07.560Z,1005.30
2019-03-19T01:15:07.588Z,1005.30
2019-03-19T01:16:07.615Z,1005.31
2019-03-19T01:17:07.641Z,1005.33
2019-03-19T01:18:07.672Z,1005.34
2019-03-19T01:19:07.695Z,1005.40
2019-03-19T01:20:07.724Z,1005.37
2019-03-19T01:21:07.751Z,1005.42
2019-03-19T01:22:07.778Z,1005.41
2019-03-19T01:23:07.804Z,1005.42
2019-03-19T01:24:07.833Z,1005.43
2019-03-19T01:25:07.860Z,1005.45
2019-03-19T01:26:07.888Z,1005.42
2019-03-19T01:27:07.913Z,1005.43
2019-03-19T01:28:07.938Z,1005.44
2019-03-19T01:29:07.964Z,1005.49
2019-03-19T01:30:07.992Z,1005.47
2019-03-19T01:31:08.024Z,1005.47
2019-03-19T01:32:08.046Z,1005.51
2019-03-19T01:33:08.074Z,1005.50
2019-03-19T01:34:08.101Z,1005.53
2019-03-19T01:35:08.127Z,1005.56
2019-03-19T01:36:08.156Z,1005.55
2019-03-19T01:37:08.184Z,1005.56
2019-03-19T01:38:08.207Z,1005.60
2019-03-19T01:39:08.236Z,1005.59
2019-03-19T01:40:08.262Z,1005.59
2019-03-19T01:41:08.292Z,1005.60
2019-03-19T01:42:08.319Z,1005.59
2019-03-19T01:43:08.343Z,1005.61
2019-03-19T01:44:08.372Z,1005.60
2019-03-19T01:45:08.396Z,1005.61
2019-03-19T01:46:08.423Z,1005.64
2019-03-19T01:47:08.451Z,1005.65
2019-03-19T01:48:08.480Z,1005.62
2019-03-19T01:49:08.504Z,1005.65
2019-03-19T01:50:08.539Z,1005.70
2019-03-19T01:51:08.561Z,1005.68
2019-03-19T01:52:08.588Z,1005.66
2019-03-19T01:53:08.612Z,1005.71
2019-03-19T01:54:08.644Z,1005.71
2019-03-19T01:55:08.666Z,1005.81
2019-03-19T01:56:08.696Z,1005.78
2019-03-19T01:57:08.720Z,1005.81
2019-03-19T01:58:08.751Z,1005.83
2019-03-19T01:59:08.775Z,1005.87
2019-03-19T02:00:08.806Z,1005.85
2019-03-19T02:01:08.828Z,1005.85
2019-03-19T02:02:08.855Z,1005.87
2019-03-19T02:03:08.885Z,1005.92
2019-03-19T02:04:08.909Z,1005.91
2019-03-19T02:05:08.937Z,1005.98
2019-03-19T02:06:08.963Z,1005.96
2019-03-19T02:07:08.992Z,1006.01
2019-03-19T02:08:09.022Z,1006.06
2019-03-19T02:09:09.048Z,1006.07
2019-03-19T02:10:09.072Z,1006.06
2019-03-19T02:11:09.097Z,1006.06
2019-03-19T02:12:09.124Z,1006.10
2019-03-19T02:13:09.150Z,1006.11
2019-03-19T02:14:09.179Z,1006.10
2019-03-19T02:15:09.203Z,1006.10
2019-03-19T02:16:09.252Z,1006.13
2019-03-19T02:17:09.255Z,1006.17
2019-03-19T02:18:09.284Z,1006.12
2019-03-19T02:19:09.309Z,1006.14
2019-03-19T02:20:09.340Z,1006.19
2019-03-19T02:21:09.362Z,1006.18
2019-03-19T02:22:09.387Z,1006.19
2019-03-19T02:23:09.415Z,1006.21
2019-03-19T02:24:09.451Z,1006.28
2019-03-19T02:25:09.467Z,1006.20
2019-03-19T02:26:16.516Z,1006.28
2019-03-19T02:27:09.521Z,1006.30
2019-03-19T02:28:09.557Z,1006.31
2019-03-19T02:29:10.927Z,1006.34
2019-03-19T02:30:09.607Z,1006.31
2019-03-19T02:31:09.626Z,1006.38
2019-03-19T02:32:09.657Z,1006.34
2019-03-19T02:33:09.684Z,1006.36
2019-03-19T02:34:09.707Z,1006.35
2019-03-19T02:35:09.737Z,1006.36
2019-03-19T02:36:09.765Z,1006.38
2019-03-19T02:37:09.784Z,1006.32
2019-03-19T02:38:09.815Z,1006.38
2019-03-19T02:39:09.840Z,1006.34
2019-03-19T02:40:09.869Z,1006.41
2019-03-19T02:41:09.890Z,1006.37
2019-03-19T02:42:09.918Z,1006.43
2019-03-19T02:43:09.947Z,1006.40
2019-03-19T02:44:09.976Z,1006.42
2019-03-19T02:45:09.996Z,1006.46
2019-03-19T02:46:10.022Z,1006.45
2019-03-19T02:47:10.053Z,1006.47
2019-03-19T02:48:10.079Z,1006.52
2019-03-19T02:49:10.108Z,1006.47
2019-03-19T02:50:10.126Z,1006.48
2019-03-19T02:51:10.158Z,1006.52
2019-03-19T02:52:10.187Z,1006.56
2019-03-19T02:53:10.204Z,1006.53
2019-03-19T02:54:10.234Z,1006.59
2019-03-19T02:55:10.258Z,1006.60
2019-03-19T02:56:10.291Z,1006.52
2019-03-19T02:57:10.342Z,1006.57
2019-03-19T02:58:10.360Z,1006.58
2019-03-19T02:59:10.371Z,1006.59
2019-03-19T03:00:10.395Z,1006.63
2019-03-19T03:01:10.413Z,1006.61
2019-03-19T03:02:10.441Z,1006.63
2019-03-19T03:03:10.469Z,1006.61
2019-03-19T03:04:10.492Z,1006.63
2019-03-19T03:05:10.526Z,1006.62
2019-03-19T03:06:10.544Z,1006.60
2019-03-19T03:07:10.571Z,1006.63
2019-03-19T03:08:10.598Z,1006.64
2019-03-19T03:09:10.634Z,1006.66
2019-03-19T03:10:10.654Z,1006.65
2019-03-19T03:11:10.714Z,1006.68
2019-03-19T03:12:10.701Z,1006.61
2019-03-19T03:13:10.728Z,1006.68
2019-03-19T03:14:10.752Z,1006.71
2019-03-19T03:15:10.780Z,1006.71
2019-03-19T03:16:10.808Z,1006.76
2019-03-19T03:17:10.829Z,1006.77
2019-03-19T03:18:10.864Z,1006.73
2019-03-19T03:19:10.881Z,1006.81
2019-03-19T03:20:10.939Z,1006.83
2019-03-19T03:21:10.934Z,1006.86
2019-03-19T03:22:10.960Z,1006.82
2019-03-19T03:23:10.985Z,1006.95
2019-03-19T03:24:11.010Z,1006.89
2019-03-19T03:25:11.036Z,1006.91
2019-03-19T03:26:11.065Z,1006.90
2019-03-19T03:27:11.090Z,1006.97
2019-03-19T03:28:11.119Z,1006.98
2019-03-19T03:29:11.141Z,1007.00
2019-03-19T03:30:11.169Z,1007.06
2019-03-19T03:31:11.196Z,1007.07
2019-03-19T03:32:11.219Z,1007.08
2019-03-19T03:33:11.245Z,1007.10
2019-03-19T03:34:11.277Z,1007.16
2019-03-19T03:35:11.314Z,1007.21
2019-03-19T03:36:11.325Z,1007.15
2019-03-19T03:37:11.370Z,1007.17
2019-03-19T03:38:11.374Z,1007.20
2019-03-19T03:39:11.400Z,1007.18
2019-03-19T03:40:11.430Z,1007.19
2019-03-19T03:41:11.449Z,1007.18
2019-03-19T03:42:11.478Z,1007.17
2019-03-19T03:43:11.502Z,1007.22
2019-03-19T03:44:11.531Z,1007.18
2019-03-19T03:45:11.552Z,1007.23
2019-03-19T03:46:11.586Z,1007.23
2019-03-19T03:47:11.604Z,1007.23
2019-03-19T03:48:11.631Z,1007.22
2019-03-19T03:49:11.657Z,1007.20
2019-03-19T03:50:11.685Z,1007.22
2019-03-19T03:51:11.708Z,1007.24
2019-03-19T03:52:11.735Z,1007.25
2019-03-19T03:53:11.759Z,1007.31
2019-03-19T03:54:11.787Z,1007.29
2019-03-19T03:55:11.817Z,1007.33
2019-03-19T03:56:11.837Z,1007.35
2019-03-19T03:57:11.862Z,1007.38
2019-03-19T03:58:11.886Z,1007.32
2019-03-19T03:59:11.915Z,1007.39
2019-03-19T04:00:11.941Z,1007.40
2019-03-19T04:01:11.963Z,1007.39
2019-03-19T04:02:11.990Z,1007.40
2019-03-19T04:03:12.019Z,1007.41
2019-03-19T04:04:12.041Z,1007.44
2019-03-19T04:05:12.066Z,1007.44
2019-03-19T04:06:12.091Z,1007.49
2019-03-19T04:07:12.123Z,1007.46
2019-03-19T04:08:12.143Z,1007.48
2019-03-19T04:09:12.168Z,1007.48
2019-03-19T04:10:12.194Z,1007.51
2019-03-19T04:11:12.221Z,1007.55
2019-03-19T04:12:12.250Z,1007.56
2019-03-19T04:13:12.274Z,1007.52
2019-03-19T04:14:12.299Z,1007.54
2019-03-19T04:15:12.323Z,1007.54
2019-03-19T04:16:12.355Z,1007.57
2019-03-19T04:17:12.376Z,1007.57
2019-03-19T04:18:12.405Z,1007.61
2019-03-19T04:19:12.425Z,1007.56
2019-03-19T04:20:12.456Z,1007.62
2019-03-19T04:21:12.475Z,1007.62
2019-03-19T04:22:15.695Z,1007.64
2019-03-19T04:23:12.530Z,1007.69
2019-03-19T04:24:12.554Z,1007.70
2019-03-19T04:25:12.583Z,1007.68
2019-03-19T04:26:12.602Z,1007.71
2019-03-19T04:27:16.218Z,1007.69
2019-03-19T04:28:12.655Z,1007.74
2019-03-19T04:29:12.680Z,1007.78
2019-03-19T04:30:12.717Z,1007.83
2019-03-19T04:31:12.733Z,1007.84
2019-03-19T04:32:12.764Z,1007.89
2019-03-19T04:33:12.784Z,1007.87
2019-03-19T04:34:12.810Z,1007.90
2019-03-19T04:35:12.831Z,1007.91
2019-03-19T04:36:12.860Z,1007.95
2019-03-19T04:37:12.884Z,1007.97
2019-03-19T04:38:12.913Z,1007.98
2019-03-19T04:39:12.939Z,1008.01
2019-03-19T04:40:12.963Z,1007.97
2019-03-19T04:41:12.984Z,1007.97
2019-03-19T04:42:13.015Z,1008.00
2019-03-19T04:43:13.039Z,1008.00
2019-03-19T04:44:13.064Z,1008.02
2019-03-19T04:45:13.088Z,1008.08
2019-03-19T04:46:13.113Z,1008.04
2019-03-19T04:47:13.137Z,1008.06
2019-03-19T04:48:13.163Z,1008.08
2019-03-19T04:49:13.190Z,1008.08
2019-03-19T04:50:13.213Z,1008.12
2019-03-19T04:51:13.243Z,1008.15
2019-03-19T04:52:13.266Z,1008.15
2019-03-19T04:53:13.291Z,1008.17
2019-03-19T04:54:13.319Z,1008.18
2019-03-19T04:55:13.346Z,1008.24
2019-03-19T04:56:13.369Z,1008.22
2019-03-19T04:57:13.391Z,1008.25
2019-03-19T04:58:13.420Z,1008.24
2019-03-19T04:59:13.444Z,1008.25
2019-03-19T05:00:13.479Z,1008.26
2019-03-19T05:01:13.495Z,1008.23
2019-03-19T05:02:13.521Z,1008.28
2019-03-19T05:03:13.547Z,1008.31
2019-03-19T05:04:13.577Z,1008.34
2019-03-19T05:05:13.596Z,1008.39
2019-03-19T05:06:13.625Z,1008.37
2019-03-19T05:07:13.653Z,1008.40
2019-03-19T05:08:13.675Z,1008.40
2019-03-19T05:09:13.699Z,1008.44
2019-03-19T05:10:13.727Z,1008.49
2019-03-19T05:11:13.751Z,1008.49
2019-03-19T05:12:13.777Z,1008.50
2019-03-19T05:13:13.803Z,1008.52
2019-03-19T05:14:13.828Z,1008.49
2019-03-19T05:15:13.866Z,1008.51
2019-03-19T05:16:13.883Z,1008.56
2019-03-19T05:17:13.906Z,1008.59
2019-03-19T05:18:13.932Z,1008.59
2019-03-19T05:19:13.961Z,1008.62
2019-03-19T05:20:13.988Z,1008.64
2019-03-19T05:21:14.008Z,1008.61
2019-03-19T05:22:14.034Z,1008.63
2019-03-19T05:23:14.060Z,1008.64
2019-03-19T05:24:14.085Z,1008.67
2019-03-19T05:25:14.114Z,1008.65
2019-03-19T05:26:14.137Z,1008.66
2019-03-19T05:27:14.165Z,1008.68
2019-03-19T05:28:14.191Z,1008.72
2019-03-19T05:29:14.216Z,1008.74
2019-03-19T05:30:14.240Z,1008.74
2019-03-19T05:31:14.269Z,1008.76
2019-03-19T05:32:14.292Z,1008.82
2019-03-19T05:33:14.318Z,1008.82
2019-03-19T05:34:14.345Z,1008.83
2019-03-19T05:35:14.383Z,1008.86
2019-03-19T05:36:14.396Z,1008.88
2019-03-19T05:37:14.424Z,1008.93
2019-03-19T05:38:14.449Z,1008.91
2019-03-19T05:39:14.472Z,1008.96
2019-03-19T05:40:14.500Z,1008.96
2019-03-19T05:41:16.562Z,1009.01
2019-03-19T05:42:14.553Z,1008.97
2019-03-19T05:43:14.586Z,1009.02
2019-03-19T05:44:14.610Z,1009.06
2019-03-19T05:45:14.633Z,1009.04
2019-03-19T05:46:14.657Z,1009.10
2019-03-19T05:47:14.682Z,1009.11
2019-03-19T05:48:14.707Z,1009.13
2019-03-19T05:49:14.732Z,1009.18
2019-03-19T05:50:14.763Z,1009.15
2019-03-19T05:51:14.784Z,1009.14
2019-03-19T05:52:14.810Z,1009.14
2019-03-19T05:53:14.840Z,1009.13
2019-03-19T05:54:14.868Z,1009.12
2019-03-19T05:55:14.894Z,1009.13
2019-03-19T05:56:14.919Z,1009.17
2019-03-19T05:57:14.941Z,1009.20
2019-03-19T05:58:14.970Z,1009.19
2019-03-19T05:59:14.996Z,1009.14
2019-03-19T06:00:15.026Z,1009.14
2019-03-19T06:01:15.046Z,1009.15
2019-03-19T06:02:15.075Z,1009.14
2019-03-19T06:03:15.100Z,1009.16
2019-03-19T06:04:15.128Z,1009.19
2019-03-19T06:05:15.157Z,1009.18
2019-03-19T06:06:15.181Z,1009.18
2019-03-19T06:07:15.214Z,1009.19
2019-03-19T06:08:15.236Z,1009.26
2019-03-19T06:09:15.263Z,1009.27
2019-03-19T06:10:15.291Z,1009.25
2019-03-19T06:11:15.315Z,1009.31
2019-03-19T06:12:15.342Z,1009.29
2019-03-19T06:13:15.373Z,1009.30
2019-03-19T06:14:15.395Z,1009.35
2019-03-19T06:15:15.428Z,1009.37
2019-03-19T06:16:15.451Z,1009.35
2019-03-19T06:17:15.478Z,1009.35
2019-03-19T06:18:15.506Z,1009.40
2019-03-19T06:19:15.533Z,1009.40
2019-03-19T06:20:15.563Z,1009.39
2019-03-19T06:21:15.590Z,1009.40
2019-03-19T06:22:15.617Z,1009.43
2019-03-19T06:23:15.645Z,1009.40
2019-03-19T06:24:15.673Z,1009.45
2019-03-19T06:25:15.702Z,1009.49
2019-03-19T06:26:15.728Z,1009.49
2019-03-19T06:27:15.759Z,1009.49
2019-03-19T06:28:15.785Z,1009.51
2019-03-19T06:29:15.814Z,1009.52
2019-03-19T06:30:15.842Z,1009.53
2019-03-19T06:31:15.868Z,1009.53
2019-03-19T06:32:15.897Z,1009.50
2019-03-19T06:33:15.923Z,1009.59
2019-03-19T06:34:15.952Z,1009.55
2019-03-19T06:35:15.980Z,1009.62
2019-03-19T06:36:16.010Z,1009.63
2019-03-19T06:37:16.037Z,1009.66
2019-03-19T06:38:16.066Z,1009.61
2019-03-19T06:39:16.094Z,1009.60
2019-03-19T06:40:16.120Z,1009.62
2019-03-19T06:41:16.152Z,1009.62
2019-03-19T06:42:16.175Z,1009.66
2019-03-19T06:43:16.209Z,1009.61
2019-03-19T06:44:16.241Z,1009.65
2019-03-19T06:45:16.260Z,1009.68
2019-03-19T06:46:16.327Z,1009.66
2019-03-19T06:47:16.318Z,1009.69
2019-03-19T06:48:16.351Z,1009.70
2019-03-19T06:49:16.376Z,1009.65
2019-03-19T06:50:16.405Z,1009.68
2019-03-19T06:51:16.429Z,1009.65
2019-03-19T06:52:16.463Z,1009.73
2019-03-19T06:53:16.486Z,1009.67
2019-03-19T06:54:16.514Z,1009.72
2019-03-19T06:55:16.543Z,1009.75
2019-03-19T06:56:16.570Z,1009.75
2019-03-19T06:57:16.597Z,1009.70
2019-03-19T06:58:16.627Z,1009.71
2019-03-19T06:59:16.658Z,1009.72
2019-03-19T07:00:16.684Z,1009.79
2019-03-19T07:01:17.565Z,1009.78
2019-03-19T07:02:16.737Z,1009.81
2019-03-19T07:03:16.767Z,1009.82
2019-03-19T07:04:16.798Z,1009.83
2019-03-19T07:05:16.821Z,1009.85
2019-03-19T07:06:16.851Z,1009.82
2019-03-19T07:07:16.879Z,1009.82
2019-03-19T07:08:16.907Z,1009.84
2019-03-19T07:09:16.933Z,1009.88
2019-03-19T07:10:16.957Z,1009.88
2019-03-19T07:11:16.987Z,1009.87
2019-03-19T07:12:17.020Z,1009.92
2019-03-19T07:13:17.050Z,1009.88
2019-03-19T07:14:17.070Z,1009.91
2019-03-19T07:15:17.097Z,1009.94
2019-03-19T07:16:17.124Z,1009.97
2019-03-19T07:17:17.150Z,1010.02
2019-03-19T07:18:17.181Z,1010.00
2019-03-19T07:19:17.208Z,1010.01
2019-03-19T07:20:17.235Z,1010.06
2019-03-19T07:21:17.263Z,1010.08
2019-03-19T07:22:17.289Z,1010.09
2019-03-19T07:23:17.315Z,1010.03
2019-03-19T07:24:17.351Z,1010.10
2019-03-19T07:25:17.373Z,1010.15
2019-03-19T07:26:17.399Z,1010.08
2019-03-19T07:27:17.426Z,1010.09
2019-03-19T07:28:21.918Z,1010.12
2019-03-19T07:29:17.480Z,1010.11
2019-03-19T07:30:17.509Z,1010.06
2019-03-19T07:31:17.539Z,1010.18
2019-03-19T07:32:17.568Z,1010.20
2019-03-19T07:33:17.592Z,1010.15
2019-03-19T07:34:17.624Z,1010.19
2019-03-19T07:35:17.655Z,1010.19
2019-03-19T07:36:17.677Z,1010.18
2019-03-19T07:37:17.704Z,1010.21
2019-03-19T07:38:17.736Z,1010.25
2019-03-19T07:39:17.764Z,1010.24
2019-03-19T07:40:17.793Z,1010.23
2019-03-19T07:41:17.826Z,1010.22
2019-03-19T07:42:17.845Z,1010.31
2019-03-19T07:43:17.873Z,1010.28
2019-03-19T07:44:17.901Z,1010.31
2019-03-19T07:45:17.930Z,1010.30
2019-03-19T07:46:17.958Z,1010.31
2019-03-19T07:47:17.988Z,1010.33
2019-03-19T07:48:18.014Z,1010.35
2019-03-19T07:49:18.044Z,1010.35
2019-03-19T07:50:18.070Z,1010.39
2019-03-19T07:51:18.099Z,1010.39
2019-03-19T07:52:18.127Z,1010.41
2019-03-19T07:53:18.155Z,1010.39
2019-03-19T07:54:18.183Z,1010.50
2019-03-19T07:55:18.214Z,1010.45
2019-03-19T07:56:18.249Z,1010.47
2019-03-19T07:57:18.334Z,1010.45
2019-03-19T07:58:18.295Z,1010.49
2019-03-19T07:59:18.327Z,1010.49
2019-03-19T08:00:18.355Z,1010.55
2019-03-19T08:01:18.379Z,1010.52
2019-03-19T08:02:18.409Z,1010.53
2019-03-19T08:03:18.435Z,1010.59
2019-03-19T08:04:18.463Z,1010.60
2019-03-19T08:05:18.492Z,1010.63
2019-03-19T08:06:18.519Z,1010.61
2019-03-19T08:07:18.546Z,1010.60
2019-03-19T08:08:18.574Z,1010.66
2019-03-19T08:09:18.633Z,1010.70
2019-03-19T08:10:18.630Z,1010.68
2019-03-19T08:11:18.659Z,1010.68
2019-03-19T08:12:18.695Z,1010.67
2019-03-19T08:13:18.726Z,1010.67
2019-03-19T08:14:18.743Z,1010.63
2019-03-19T08:15:18.774Z,1010.70
2019-03-19T08:16:27.032Z,1010.72
2019-03-19T08:17:18.825Z,1010.69
2019-03-19T08:18:18.855Z,1010.72
2019-03-19T08:19:18.885Z,1010.77
2019-03-19T08:20:18.913Z,1010.82
2019-03-19T08:21:18.936Z,1010.82
2019-03-19T08:22:18.965Z,1010.84
2019-03-19T08:23:18.993Z,1010.83
2019-03-19T08:24:19.024Z,1010.84
2019-03-19T08:25:19.051Z,1010.85
2019-03-19T08:26:19.082Z,1010.79
2019-03-19T08:27:19.106Z,1010.81
2019-03-19T08:28:19.137Z,1010.78
2019-03-19T08:29:19.163Z,1010.80
2019-03-19T08:30:19.194Z,1010.87
2019-03-19T08:31:19.241Z,1010.85
2019-03-19T08:32:19.246Z,1010.83
2019-03-19T08:33:19.274Z,1010.85
2019-03-19T08:34:19.303Z,1010.82
2019-03-19T08:35:19.330Z,1010.87
2019-03-19T08:36:19.359Z,1010.85
2019-03-19T08:37:19.390Z,1010.94
2019-03-19T08:38:19.414Z,1010.98
2019-03-19T08:39:20.747Z,1011.02
2019-03-19T08:40:19.471Z,1011.09
2019-03-19T08:41:19.499Z,1011.17
2019-03-19T08:42:19.530Z,1011.16
2019-03-19T08:43:20.463Z,1011.05
2019-03-19T08:44:27.521Z,1011.16
2019-03-19T08:45:19.619Z,1011.11
2019-03-19T08:46:19.647Z,1011.20
2019-03-19T08:47:19.677Z,1011.17
2019-03-19T08:48:19.706Z,1011.13
2019-03-19T08:49:19.736Z,1011.11
2019-03-19T08:50:19.772Z,1011.14
2019-03-19T08:51:19.800Z,1011.11
2019-03-19T08:52:19.828Z,1011.05
2019-03-19T08:53:19.859Z,1011.05
2019-03-19T08:54:19.890Z,1011.06
2019-03-19T08:55:19.924Z,1011.10
2019-03-19T08:56:19.951Z,1011.10
2019-03-19T08:57:19.981Z,1011.08
2019-03-19T08:58:20.013Z,1011.21
2019-03-19T08:59:20.045Z,1011.20
2019-03-19T09:00:20.074Z,1011.19
2019-03-19T09:01:20.105Z,1011.19
2019-03-19T09:02:20.138Z,1011.19
2019-03-19T09:03:20.169Z,1011.23
2019-03-19T09:04:20.202Z,1011.27
2019-03-19T09:05:20.239Z,1011.21
2019-03-19T09:06:20.260Z,1011.14
2019-03-19T09:07:20.294Z,1011.11
2019-03-19T09:08:20.323Z,1011.16
2019-03-19T09:09:20.357Z,1011.23
2019-03-19T09:10:20.385Z,1011.15
2019-03-19T09:11:20.414Z,1011.18
2019-03-19T09:12:20.450Z,1011.25
2019-03-19T09:13:20.480Z,1011.20
2019-03-19T09:14:20.513Z,1011.21
2019-03-19T09:15:20.545Z,1011.25
2019-03-19T09:16:20.570Z,1011.15
2019-03-19T09:17:20.602Z,1011.28
2019-03-19T09:18:20.638Z,1011.25
2019-03-19T09:19:20.667Z,1011.31
2019-03-19T09:20:20.694Z,1011.30
2019-03-19T09:21:20.723Z,1011.31
2019-03-19T09:22:20.931Z,1011.30
2019-03-19T09:23:20.785Z,1011.30
2019-03-19T09:24:20.818Z,1011.34
2019-03-19T09:25:20.846Z,1011.35
2019-03-19T09:26:20.880Z,1011.55
2019-03-19T09:27:20.906Z,1011.51
2019-03-19T09:28:20.939Z,1011.58
2019-03-19T09:29:20.970Z,1011.63
2019-03-19T09:30:21.000Z,1011.67
2019-03-19T09:31:21.032Z,1011.64
2019-03-19T09:32:21.064Z,1011.55
2019-03-19T09:33:21.097Z,1011.71
2019-03-19T09:34:21.123Z,1011.60
2019-03-19T09:35:21.154Z,1011.80
2019-03-19T09:36:21.189Z,1011.59
2019-03-19T09:37:21.216Z,1011.49
2019-03-19T09:38:21.250Z,1011.62
2019-03-19T09:39:21.287Z,1011.67
2019-03-19T09:40:21.314Z,1011.66
2019-03-19T09:41:21.349Z,1011.63
2019-03-19T09:42:21.380Z,1011.70
2019-03-19T09:43:21.414Z,1011.61
2019-03-19T09:44:21.445Z,1011.55
2019-03-19T09:45:21.495Z,1011.52
2019-03-19T09:46:21.509Z,1011.53
2019-03-19T09:47:21.545Z,1011.58
2019-03-19T09:48:21.588Z,1011.59
2019-03-19T09:49:21.616Z,1011.58
2019-03-19T09:50:21.640Z,1011.49
2019-03-19T09:51:21.673Z,1011.60
2019-03-19T09:52:21.706Z,1011.68
2019-03-19T09:53:21.734Z,1011.73
2019-03-19T09:54:21.767Z,1011.83
2019-03-19T09:55:21.798Z,1011.87
2019-03-19T09:56:21.831Z,1011.95
2019-03-19T09:57:21.864Z,1012.00
2019-03-19T09:58:21.890Z,1012.00
2019-03-19T09:59:27.152Z,1012.00
2019-03-19T10:00:21.959Z,1011.93
2019-03-19T10:01:21.986Z,1012.01
2019-03-19T10:02:23.828Z,1012.01
2019-03-19T10:03:22.048Z,1012.04
2019-03-19T10:04:22.078Z,1011.98
2019-03-19T10:05:22.115Z,1012.03
2019-03-19T10:06:22.139Z,1011.96
2019-03-19T10:07:22.172Z,1011.95
2019-03-19T10:08:22.204Z,1011.92
2019-03-19T10:09:22.234Z,1012.02
2019-03-19T10:10:22.278Z,1012.06
2019-03-19T10:11:22.296Z,1012.06
2019-03-19T10:12:22.326Z,1012.13
2019-03-19T10:13:22.362Z,1012.16
2019-03-19T10:14:22.387Z,1012.21
2019-03-19T10:15:22.421Z,1012.22
2019-03-19T10:16:22.450Z,1012.28
2019-03-19T10:17:22.480Z,1012.18
2019-03-19T10:18:22.510Z,1012.23
2019-03-19T10:19:22.546Z,1012.26
2019-03-19T10:20:22.572Z,1012.24
2019-03-19T10:21:22.601Z,1012.22
2019-03-19T10:22:22.635Z,1012.30
2019-03-19T10:23:22.666Z,1012.27
2019-03-19T10:24:22.694Z,1012.26
2019-03-19T10:25:22.723Z,1012.44
2019-03-19T10:26:22.754Z,1012.30
2019-03-19T10:27:22.807Z,1012.24
2019-03-19T10:28:22.818Z,1012.24
2019-03-19T10:29:22.847Z,1012.38
2019-03-19T10:30:22.885Z,1012.32
2019-03-19T10:31:22.913Z,1012.31
2019-03-19T10:32:22.941Z,1012.21
2019-03-19T10:33:22.974Z,1012.26
2019-03-19T10:34:23.005Z,1012.25
2019-03-19T10:35:23.048Z,1012.24
2019-03-19T10:36:23.067Z,1012.21
2019-03-19T10:37:23.100Z,1012.22
2019-03-19T10:38:23.128Z,1012.42
2019-03-19T10:39:23.165Z,1012.39
2019-03-19T10:40:23.189Z,1012.51
2019-03-19T10:41:23.226Z,1012.49
2019-03-19T10:42:23.254Z,1012.54
2019-03-19T10:43:23.283Z,1012.54
2019-03-19T10:44:23.312Z,1012.55
2019-03-19T10:45:23.446Z,1012.51
2019-03-19T10:46:23.374Z,1012.60
2019-03-19T10:47:23.406Z,1012.54
2019-03-19T10:48:23.435Z,1012.53
2019-03-19T10:49:23.466Z,1012.53
2019-03-19T10:50:23.496Z,1012.56
2019-03-19T10:51:23.530Z,1012.49
2019-03-19T10:52:23.559Z,1012.51
2019-03-19T10:53:23.589Z,1012.47
2019-03-19T10:54:23.620Z,1012.48
2019-03-19T10:55:23.651Z,1012.51
2019-03-19T10:56:23.682Z,1012.51
2019-03-19T10:57:23.711Z,1012.57
2019-03-19T10:58:23.742Z,1012.59
2019-03-19T10:59:23.773Z,1012.63
2019-03-19T11:00:23.803Z,1012.63
2019-03-19T11:01:23.832Z,1012.59
2019-03-19T11:02:23.866Z,1012.74
2019-03-19T11:03:23.900Z,1012.71
2019-03-19T11:04:23.924Z,1012.74
2019-03-19T11:05:23.958Z,1012.67
2019-03-19T11:06:23.991Z,1012.77
2019-03-19T11:07:24.017Z,1012.84
2019-03-19T11:08:24.047Z,1012.87
2019-03-19T11:09:24.078Z,1012.84
2019-03-19T11:10:24.111Z,1012.86
2019-03-19T11:11:24.134Z,1012.82
2019-03-19T11:12:24.176Z,1012.82
2019-03-19T11:13:24.198Z,1012.92
2019-03-19T11:14:24.227Z,1012.91
2019-03-19T11:15:24.260Z,1012.96
2019-03-19T11:16:24.287Z,1012.88
2019-03-19T11:17:24.315Z,1012.91
2019-03-19T11:18:24.345Z,1012.92
2019-03-19T11:19:24.377Z,1012.97
2019-03-19T11:20:24.407Z,1012.93
2019-03-19T11:21:24.435Z,1012.98
2019-03-19T11:22:24.467Z,1013.02
2019-03-19T11:23:24.498Z,1012.96
2019-03-19T11:24:24.527Z,1012.89
2019-03-19T11:25:24.558Z,1012.96
2019-03-19T11:26:24.585Z,1012.99
2019-03-19T11:27:24.616Z,1013.09
2019-03-19T11:28:24.648Z,1013.04
2019-03-19T11:29:24.675Z,1013.02
2019-03-19T11:30:24.707Z,1013.05
2019-03-19T11:31:24.736Z,1013.11
2019-03-19T11:32:24.765Z,1013.10
2019-03-19T11:33:24.792Z,1013.15
2019-03-19T11:34:24.830Z,1013.17
2019-03-19T11:35:24.852Z,1013.13
2019-03-19T11:36:24.882Z,1013.12
2019-03-19T11:37:24.913Z,1013.24
2019-03-19T11:38:24.941Z,1013.28
2019-03-19T11:39:24.970Z,1013.39
2019-03-19T11:40:25.989Z,1013.33
2019-03-19T11:41:25.026Z,1013.31
2019-03-19T11:42:25.055Z,1013.37
2019-03-19T11:43:25.086Z,1013.40
2019-03-19T11:44:25.113Z,1013.36
2019-03-19T11:45:25.141Z,1013.46
2019-03-19T11:46:25.172Z,1013.45
2019-03-19T11:47:25.199Z,1013.52
2019-03-19T11:48:25.232Z,1013.54
2019-03-19T11:49:25.272Z,1013.52
2019-03-19T11:50:25.288Z,1013.56
2019-03-19T11:51:25.317Z,1013.44
2019-03-19T11:52:25.349Z,1013.48
2019-03-19T11:53:25.375Z,1013.43
2019-03-19T11:54:25.421Z,1013.39
2019-03-19T11:55:25.434Z,1013.42
2019-03-19T11:56:25.464Z,1013.45
2019-03-19T11:57:25.491Z,1013.48
2019-03-19T11:58:25.520Z,1013.55
2019-03-19T11:59:25.549Z,1013.54
2019-03-19T12:00:25.579Z,1013.52
2019-03-19T12:01:25.607Z,1013.58
2019-03-19T12:02:26.440Z,1013.58
2019-03-19T12:03:25.667Z,1013.63
2019-03-19T12:04:25.696Z,1013.64
2019-03-19T12:05:25.730Z,1013.55